Time;durP1;ratioP1;P1;durP2;ratioP2;P2;SDS_P1;SDS_P2;PMS_P1;PMS_P2;Temp;Humidity;BMP_temperature;BMP_pressure;BME280_temperature;BME280_humidity;BME280_pressure;Samples;Min_cycle;Max_cycle;Signal;HPM_P1;HPM_P2
2021/11/11 00:01:26;;;;;;;8.13;5.43;;;5.40;99.90;;;;;;5033859;28;20246;-68
2021/11/11 00:03:52;;;;;;;9.77;6.40;;;5.30;99.90;;;;;;5033841;28;20251;-67
2021/11/11 00:06:17;;;;;;;6.73;5.40;;;5.30;99.90;;;;;;5033935;28;20171;-67
2021/11/11 00:08:44;;;;;;;8.07;4.37;;;5.30;99.90;;;;;;5033788;28;20188;-68
2021/11/11 00:11:10;;;;;;;10.17;6.57;;;5.30;99.90;;;;;;5030983;28;20193;-68
2021/11/11 00:13:35;;;;;;;11.23;6.70;;;5.30;99.90;;;;;;5013869;28;20785;-68
2021/11/11 00:16:04;;;;;;;7.77;5.60;;;5.30;99.90;;;;;;5013699;28;20438;-70
2021/11/11 00:18:29;;;;;;;7.83;4.90;;;5.20;99.90;;;;;;5013669;28;20227;-69
2021/11/11 00:20:55;;;;;;;11.30;6.20;;;5.20;99.90;;;;;;5013545;28;20420;-69
2021/11/11 00:23:20;;;;;;;6.80;5.67;;;5.20;99.90;;;;;;5013482;28;20579;-71
2021/11/11 00:25:46;;;;;;;10.70;5.43;;;5.20;99.90;;;;;;5013337;28;20177;-68
2021/11/11 00:28:11;;;;;;;8.97;6.30;;;5.20;99.90;;;;;;5013215;28;20230;-67
2021/11/11 00:30:37;;;;;;;5.17;4.63;;;5.20;99.90;;;;;;5012977;28;20180;-67
2021/11/11 00:33:02;;;;;;;11.20;5.87;;;5.10;99.90;;;;;;5013135;28;20248;-67
2021/11/11 00:35:30;;;;;;;8.73;5.60;;;5.10;99.90;;;;;;5012862;28;20203;-67
2021/11/11 00:37:57;;;;;;;10.63;6.83;;;5.10;99.90;;;;;;5013107;28;20549;-67
2021/11/11 00:40:25;;;;;;;8.57;5.80;;;5.10;99.90;;;;;;5012818;28;20435;-67
2021/11/11 00:42:50;;;;;;;8.10;6.23;;;5.20;99.90;;;;;;5013198;28;20499;-68
2021/11/11 00:45:17;;;;;;;6.87;6.13;;;5.20;99.90;;;;;;5013046;28;20453;-68
2021/11/11 00:47:44;;;;;;;9.83;5.43;;;5.10;99.90;;;;;;5012955;28;20255;-68
2021/11/11 00:50:11;;;;;;;7.37;4.63;;;5.00;99.90;;;;;;5012650;28;20435;-69
2021/11/11 00:52:37;;;;;;;9.90;7.00;;;5.00;99.90;;;;;;5012674;28;20910;-68
2021/11/11 00:55:03;;;;;;;10.57;7.40;;;5.00;99.90;;;;;;5012645;28;20454;-67
2021/11/11 00:57:29;;;;;;;7.07;5.40;;;4.90;99.90;;;;;;5012495;28;20176;-67
2021/11/11 00:59:54;;;;;;;18.47;6.20;;;4.90;99.90;;;;;;5012296;28;20741;-67
2021/11/11 01:02:20;;;;;;;8.10;6.57;;;4.90;99.90;;;;;;5012767;28;20271;-70
2021/11/11 01:04:46;;;;;;;8.87;5.43;;;4.90;99.90;;;;;;5012565;28;20267;-67
2021/11/11 01:07:12;;;;;;;8.80;5.80;;;4.80;99.90;;;;;;5012771;28;20228;-68
2021/11/11 01:09:38;;;;;;;8.87;4.80;;;4.80;99.90;;;;;;5012432;28;20415;-67
2021/11/11 01:12:05;;;;;;;8.90;6.97;;;4.70;99.90;;;;;;5012399;28;20168;-67
2021/11/11 01:14:35;;;;;;;7.50;5.03;;;4.70;99.90;;;;;;5012370;28;20771;-68
2021/11/11 01:17:01;;;;;;;7.30;5.53;;;4.70;99.90;;;;;;5012520;28;20489;-67
2021/11/11 01:19:27;;;;;;;8.53;5.70;;;4.70;99.90;;;;;;5012655;28;20454;-68
2021/11/11 01:21:53;;;;;;;9.90;7.13;;;4.60;99.90;;;;;;5012254;28;20191;-69
2021/11/11 01:24:19;;;;;;;9.03;5.33;;;4.60;99.90;;;;;;5012225;28;20227;-67
2021/11/11 01:26:45;;;;;;;7.73;5.63;;;4.60;99.90;;;;;;5012457;28;20978;-67
2021/11/11 01:29:12;;;;;;;6.40;5.33;;;4.50;99.90;;;;;;5012376;28;20455;-68
2021/11/11 01:31:38;;;;;;;11.50;7.33;;;4.60;99.90;;;;;;5012185;28;20473;-68
2021/11/11 01:34:04;;;;;;;7.00;5.70;;;4.60;99.90;;;;;;5012046;28;20870;-68
2021/11/11 01:36:29;;;;;;;9.33;6.20;;;4.50;99.90;;;;;;5012006;28;20411;-68
2021/11/11 01:38:55;;;;;;;7.40;6.60;;;4.50;99.90;;;;;;5011615;28;20283;-68
2021/11/11 01:41:20;;;;;;;14.00;5.73;;;4.40;99.90;;;;;;5012041;28;20221;-66
2021/11/11 01:43:46;;;;;;;11.40;6.73;;;4.40;99.90;;;;;;5012059;28;20258;-67
2021/11/11 01:46:12;;;;;;;12.50;6.60;;;4.40;99.90;;;;;;5011884;28;20173;-68
2021/11/11 01:48:37;;;;;;;9.13;6.90;;;4.40;99.90;;;;;;5012015;28;20288;-68
2021/11/11 01:51:03;;;;;;;8.33;6.67;;;4.40;99.90;;;;;;5012043;28;20203;-66
2021/11/11 01:53:29;;;;;;;7.43;6.20;;;4.30;99.90;;;;;;5011873;28;20222;-69
2021/11/11 01:55:54;;;;;;;9.10;6.03;;;4.30;99.90;;;;;;5011926;28;20539;-67
2021/11/11 01:58:20;;;;;;;10.33;7.50;;;4.30;99.90;;;;;;5011848;28;20164;-67
2021/11/11 02:00:54;;;;;;;7.33;6.00;;;4.30;99.90;;;;;;5010558;28;20173;-68
2021/11/11 02:03:21;;;;;;;9.20;6.80;;;4.30;99.90;;;;;;5011762;28;20200;-69
2021/11/11 02:05:48;;;;;;;16.90;6.90;;;4.30;99.90;;;;;;5011781;28;20497;-67
2021/11/11 02:08:15;;;;;;;8.20;6.00;;;4.20;99.90;;;;;;5011856;28;20898;-68
2021/11/11 02:10:41;;;;;;;9.37;6.27;;;4.20;99.90;;;;;;5011477;28;20407;-68
2021/11/11 02:13:08;;;;;;;8.30;7.40;;;4.20;99.90;;;;;;5011299;28;20411;-68
2021/11/11 02:15:34;;;;;;;9.47;6.03;;;4.20;99.90;;;;;;5011366;28;20458;-68
2021/11/11 02:18:00;;;;;;;8.00;6.10;;;4.20;99.90;;;;;;5011320;28;20518;-68
2021/11/11 02:20:31;;;;;;;14.37;7.50;;;4.30;99.90;;;;;;5011175;28;20427;-68
2021/11/11 02:22:59;;;;;;;10.57;8.00;;;4.20;99.90;;;;;;5011300;28;20459;-68
2021/11/11 02:25:27;;;;;;;10.27;6.53;;;4.20;99.90;;;;;;5011345;28;20431;-67
2021/11/11 02:27:59;;;;;;;8.00;6.03;;;4.20;99.90;;;;;;5011418;28;20430;-70
2021/11/11 02:30:27;;;;;;;8.43;5.60;;;4.20;99.90;;;;;;5011520;28;20419;-68
2021/11/11 02:32:53;;;;;;;8.63;6.30;;;4.10;99.90;;;;;;5011485;28;20419;-67
2021/11/11 02:35:19;;;;;;;8.20;5.40;;;4.10;99.90;;;;;;5013728;28;20426;-67
2021/11/11 02:37:45;;;;;;;5.00;4.50;;;4.10;99.90;;;;;;5031051;28;20531;-68
2021/11/11 02:40:15;;;;;;;10.50;6.67;;;4.00;99.90;;;;;;5030970;28;20659;-68
2021/11/11 02:42:42;;;;;;;9.23;6.20;;;4.00;99.90;;;;;;5029971;28;20454;-67
2021/11/11 02:45:10;;;;;;;8.80;6.90;;;4.00;99.90;;;;;;5030884;28;20418;-67
2021/11/11 02:47:36;;;;;;;8.40;5.30;;;4.00;99.90;;;;;;5031103;28;20410;-67
2021/11/11 02:50:04;;;;;;;9.00;5.50;;;4.00;99.90;;;;;;5030756;28;20426;-67
2021/11/11 02:52:30;;;;;;;8.90;8.10;;;4.00;99.90;;;;;;5034106;28;20175;-67
2021/11/11 02:54:55;;;;;;;6.23;5.63;;;4.00;99.90;;;;;;5034766;28;20778;-68
2021/11/11 02:57:34;;;;;;;10.73;5.60;;;3.90;99.90;;;;;;5034726;28;20178;-68
2021/11/11 03:00:12;;;;;;;6.93;5.80;;;3.90;99.90;;;;;;5034749;28;20191;-69
2021/11/11 03:02:40;;;;;;;13.53;5.90;;;3.80;99.90;;;;;;5034710;28;20980;-68
2021/11/11 03:05:08;;;;;;;7.63;6.10;;;3.80;99.90;;;;;;5033833;28;20406;-69
2021/11/11 03:07:34;;;;;;;5.07;4.43;;;3.70;99.90;;;;;;5033038;28;20410;-68
2021/11/11 03:09:59;;;;;;;7.40;5.23;;;3.70;99.90;;;;;;5034795;28;20418;-70
2021/11/11 03:12:25;;;;;;;8.90;4.73;;;3.60;99.90;;;;;;5034684;28;20456;-68
2021/11/11 03:14:53;;;;;;;6.57;4.60;;;3.60;99.90;;;;;;5035095;28;20168;-67
2021/11/11 03:17:18;;;;;;;6.40;5.77;;;3.60;99.90;;;;;;5034304;28;20183;-68
2021/11/11 03:19:46;;;;;;;8.53;5.30;;;3.70;99.90;;;;;;5034260;28;20559;-69
2021/11/11 03:22:15;;;;;;;8.03;5.80;;;3.70;99.90;;;;;;5034403;28;20738;-68
2021/11/11 03:24:41;;;;;;;7.33;5.93;;;3.70;99.90;;;;;;5033972;28;20460;-68
2021/11/11 03:27:09;;;;;;;8.97;6.47;;;4.10;99.90;;;;;;5034281;28;20509;-68
2021/11/11 03:29:34;;;;;;;9.20;6.20;;;4.10;99.90;;;;;;5034063;28;20207;-68
2021/11/11 03:32:00;;;;;;;8.10;5.23;;;4.00;99.90;;;;;;5034079;28;20410;-68
2021/11/11 03:34:26;;;;;;;8.93;5.33;;;3.80;99.90;;;;;;5033953;28;20818;-67
2021/11/11 03:36:55;;;;;;;7.40;6.50;;;3.70;99.90;;;;;;5034044;28;20940;-68
2021/11/11 03:39:22;;;;;;;12.67;7.10;;;3.60;99.90;;;;;;5033789;28;20426;-69
2021/11/11 03:41:49;;;;;;;7.73;5.90;;;3.50;99.90;;;;;;5033803;28;20486;-67
2021/11/11 03:44:18;;;;;;;8.73;5.97;;;3.50;99.90;;;;;;5033715;28;20450;-68
2021/11/11 03:46:48;;;;;;;7.50;5.70;;;3.50;99.90;;;;;;5034077;28;20493;-68
2021/11/11 03:49:14;;;;;;;7.00;6.17;;;3.50;99.90;;;;;;5033864;28;20513;-68
2021/11/11 03:51:40;;;;;;;10.97;5.60;;;3.50;99.90;;;;;;5033766;28;20512;-67
2021/11/11 03:54:06;;;;;;;8.50;7.37;;;3.50;99.90;;;;;;5033945;28;20430;-67
2021/11/11 03:56:34;;;;;;;9.77;6.50;;;3.40;99.90;;;;;;5033920;28;20429;-67
2021/11/11 03:59:00;;;;;;;7.17;6.47;;;3.40;99.90;;;;;;5033831;28;20250;-67
2021/11/11 04:01:26;;;;;;;7.80;5.93;;;3.40;99.90;;;;;;5033461;28;20450;-68
2021/11/11 04:03:52;;;;;;;11.70;8.10;;;3.40;99.90;;;;;;5033163;28;20198;-68
2021/11/11 04:06:17;;;;;;;9.17;5.13;;;3.30;99.90;;;;;;5033290;28;20403;-69
2021/11/11 04:08:43;;;;;;;5.37;4.87;;;3.30;99.90;;;;;;5033334;28;20179;-67
2021/11/11 04:11:09;;;;;;;8.37;5.77;;;3.30;99.90;;;;;;5033349;28;20168;-67
2021/11/11 04:13:35;;;;;;;8.47;6.13;;;3.20;99.90;;;;;;5033030;28;20179;-68
2021/11/11 04:16:00;;;;;;;7.97;6.20;;;3.30;99.90;;;;;;5033256;28;20407;-67
2021/11/11 04:18:26;;;;;;;7.40;5.73;;;3.20;99.90;;;;;;5032914;28;20922;-68
2021/11/11 04:20:52;;;;;;;8.77;6.10;;;3.20;99.90;;;;;;5033473;28;20174;-68
2021/11/11 04:23:18;;;;;;;9.33;6.80;;;3.20;99.90;;;;;;5032972;28;20222;-68
2021/11/11 04:25:52;;;;;;;8.47;5.73;;;3.20;99.90;;;;;;5031713;28;20434;-67
2021/11/11 04:28:32;;;;;;;9.30;7.10;;;3.20;99.90;;;;;;5033099;28;20746;-69
2021/11/11 04:31:06;;;;;;;8.90;5.97;;;3.20;99.90;;;;;;5032948;28;20905;-69
2021/11/11 04:33:34;;;;;;;7.03;6.00;;;3.20;99.90;;;;;;5032804;28;20529;-67
2021/11/11 04:36:04;;;;;;;5.90;5.40;;;3.10;99.90;;;;;;5033042;28;20405;-67
2021/11/11 04:38:54;;;;;;;12.67;8.47;;;3.10;99.90;;;;;;5031686;28;21233;-68
2021/11/11 04:41:43;;;;;;;7.93;5.47;;;3.10;99.90;;;;;;5032639;28;20765;-70
2021/11/11 04:44:28;;;;;;;8.50;6.03;;;3.10;99.90;;;;;;5032757;28;20972;-68
2021/11/11 04:47:15;;;;;;;6.90;5.47;;;3.10;99.90;;;;;;5032629;28;20398;-68
2021/11/11 05:00:56;;;;;;;10.80;5.30;;;3.00;99.90;;;;;;5031444;28;20449;-68
2021/11/11 05:03:25;;;;;;;10.17;5.50;;;3.10;99.90;;;;;;5032533;28;20481;-69
2021/11/11 05:05:52;;;;;;;17.50;7.37;;;3.10;99.90;;;;;;5032268;28;20402;-70
2021/11/11 05:08:17;;;;;;;8.40;7.17;;;3.10;99.90;;;;;;5032157;28;20898;-69
2021/11/11 05:10:45;;;;;;;8.10;5.07;;;3.10;99.90;;;;;;5032202;28;20510;-69
2021/11/11 05:13:11;;;;;;;8.20;5.73;;;3.10;99.90;;;;;;5031821;28;20234;-71
2021/11/11 05:15:36;;;;;;;9.37;6.30;;;3.00;99.90;;;;;;5031538;28;20831;-68
2021/11/11 05:18:02;;;;;;;7.53;5.13;;;3.00;99.90;;;;;;5032103;28;20188;-69
2021/11/11 05:20:28;;;;;;;9.00;5.57;;;3.00;99.90;;;;;;5032200;28;20221;-70
2021/11/11 05:22:53;;;;;;;5.83;4.93;;;3.00;99.90;;;;;;5032171;28;20195;-69
2021/11/11 05:25:19;;;;;;;10.10;6.97;;;3.00;99.90;;;;;;5031890;28;20305;-68
2021/11/11 05:27:45;;;;;;;11.10;7.17;;;2.90;99.90;;;;;;5032308;28;20178;-69
2021/11/11 05:30:12;;;;;;;11.93;6.67;;;2.90;99.90;;;;;;5031905;28;20426;-69
2021/11/11 05:32:38;;;;;;;5.60;4.47;;;2.80;99.90;;;;;;5032020;28;20164;-69
2021/11/11 05:35:06;;;;;;;11.73;5.77;;;2.80;99.90;;;;;;5031835;28;20909;-69
2021/11/11 05:37:33;;;;;;;6.43;4.97;;;2.80;99.90;;;;;;5032159;28;20701;-69
2021/11/11 05:39:59;;;;;;;12.43;6.90;;;2.80;99.90;;;;;;5030525;28;20488;-69
2021/11/11 05:42:25;;;;;;;8.27;6.17;;;2.80;99.90;;;;;;5032145;28;20402;-69
2021/11/11 05:44:51;;;;;;;6.90;4.50;;;2.80;99.90;;;;;;5031726;28;20163;-69
2021/11/11 05:47:17;;;;;;;10.27;7.20;;;2.70;99.90;;;;;;5031926;28;20520;-70
2021/11/11 05:49:43;;;;;;;6.90;5.57;;;2.70;99.90;;;;;;5031761;28;20187;-69
2021/11/11 05:52:09;;;;;;;9.10;6.40;;;2.90;99.90;;;;;;5031763;28;20409;-70
2021/11/11 05:54:37;;;;;;;9.73;5.77;;;2.90;99.90;;;;;;5031495;28;20788;-69
2021/11/11 05:57:04;;;;;;;9.17;5.20;;;2.80;99.90;;;;;;5031634;28;20406;-69
2021/11/11 05:59:30;;;;;;;5.83;4.30;;;2.80;99.90;;;;;;5031563;28;20418;-69
2021/11/11 06:01:57;;;;;;;8.40;4.30;;;2.70;99.90;;;;;;5031882;28;20922;-69
2021/11/11 06:04:23;;;;;;;5.73;4.57;;;2.80;99.90;;;;;;5032043;28;20597;-69
2021/11/11 06:06:48;;;;;;;8.23;5.10;;;2.70;99.90;;;;;;5031569;28;20426;-69
2021/11/11 06:09:14;;;;;;;9.10;8.07;;;2.80;99.90;;;;;;5031228;28;20427;-71
2021/11/11 06:11:39;;;;;;;9.70;6.80;;;2.80;99.90;;;;;;5031555;28;20577;-68
2021/11/11 06:14:05;;;;;;;6.60;5.20;;;2.80;99.90;;;;;;5031368;28;20182;-71
2021/11/11 06:16:30;;;;;;;9.00;4.60;;;2.80;99.90;;;;;;5031590;28;20235;-69
2021/11/11 06:18:56;;;;;;;8.90;5.33;;;2.80;99.90;;;;;;5031399;28;20246;-69
2021/11/11 06:21:23;;;;;;;13.00;5.80;;;2.90;99.90;;;;;;5031437;28;20693;-69
2021/11/11 06:23:50;;;;;;;13.00;7.50;;;2.90;99.90;;;;;;5031899;28;20192;-69
2021/11/11 06:26:22;;;;;;;9.43;6.73;;;2.90;99.90;;;;;;5035963;28;20413;-68
2021/11/11 06:28:48;;;;;;;7.53;6.70;;;3.00;99.90;;;;;;5021718;28;20762;-69
2021/11/11 06:31:15;;;;;;;10.33;6.63;;;2.90;99.90;;;;;;5038550;28;20402;-69
2021/11/11 06:33:40;;;;;;;8.20;7.07;;;3.00;99.90;;;;;;5038152;28;20433;-69
2021/11/11 06:36:06;;;;;;;11.20;7.40;;;2.90;99.90;;;;;;5038056;28;21034;-68
2021/11/11 06:38:31;;;;;;;11.17;6.17;;;3.10;99.90;;;;;;5037976;28;20191;-70
2021/11/11 06:40:57;;;;;;;10.27;7.80;;;3.00;99.90;;;;;;5038019;28;20164;-68
2021/11/11 06:43:22;;;;;;;10.53;7.53;;;3.10;99.90;;;;;;5037850;28;20203;-68
2021/11/11 06:45:48;;;;;;;8.80;5.03;;;3.20;99.90;;;;;;5038126;28;20230;-68
2021/11/11 06:48:15;;;;;;;9.13;5.43;;;3.20;99.90;;;;;;5038055;28;20172;-69
2021/11/11 06:50:43;;;;;;;14.43;7.97;;;3.30;99.90;;;;;;5038078;28;20183;-69
2021/11/11 06:53:10;;;;;;;10.73;6.60;;;3.30;99.90;;;;;;5037795;28;20913;-69
2021/11/11 06:55:36;;;;;;;14.10;5.93;;;3.30;99.90;;;;;;5037795;28;20414;-69
2021/11/11 06:58:02;;;;;;;14.40;8.80;;;3.40;99.90;;;;;;5037976;28;20467;-69
2021/11/11 07:00:28;;;;;;;19.50;7.80;;;3.50;99.90;;;;;;5037887;28;20437;-71
2021/11/11 07:02:54;;;;;;;7.93;5.80;;;3.50;99.90;;;;;;5036549;28;20544;-69
2021/11/11 07:05:20;;;;;;;8.40;6.47;;;3.50;99.90;;;;;;5037620;28;20561;-67
2021/11/11 07:07:48;;;;;;;14.10;7.60;;;3.60;99.90;;;;;;5037664;28;20233;-67
2021/11/11 07:10:14;;;;;;;13.13;8.23;;;3.60;99.90;;;;;;5037652;28;20207;-67
2021/11/11 07:12:40;;;;;;;16.20;8.00;;;3.70;99.90;;;;;;5037908;28;20418;-69
2021/11/11 07:15:08;;;;;;;12.50;8.93;;;3.60;99.90;;;;;;5037711;28;20413;-69
2021/11/11 07:17:35;;;;;;;9.00;7.00;;;3.70;99.90;;;;;;5037327;28;20215;-68
2021/11/11 07:20:02;;;;;;;11.37;7.70;;;3.70;99.90;;;;;;5037400;28;20437;-68
2021/11/11 07:22:28;;;;;;;15.07;8.03;;;3.70;99.90;;;;;;5037621;28;20822;-68
2021/11/11 07:24:53;;;;;;;9.20;7.60;;;3.80;99.90;;;;;;5037516;28;20460;-68
2021/11/11 07:27:19;;;;;;;9.50;6.60;;;3.90;99.90;;;;;;5037636;28;20167;-69
2021/11/11 07:29:44;;;;;;;12.97;7.03;;;3.90;99.90;;;;;;5037463;28;20742;-67
2021/11/11 07:32:10;;;;;;;15.50;7.93;;;4.00;99.90;;;;;;5037566;28;20203;-68
2021/11/11 07:34:36;;;;;;;9.03;7.40;;;4.00;99.90;;;;;;5037474;28;20180;-69
2021/11/11 07:37:09;;;;;;;18.13;9.10;;;4.10;99.90;;;;;;5035298;28;20413;-68
2021/11/11 07:39:35;;;;;;;12.33;9.47;;;4.10;99.90;;;;;;5034332;28;20215;-68
2021/11/11 07:42:00;;;;;;;12.87;8.73;;;4.10;99.90;;;;;;5020823;28;20467;-68
2021/11/11 07:44:26;;;;;;;12.13;8.57;;;4.30;99.90;;;;;;5029275;28;20460;-69
2021/11/11 07:46:51;;;;;;;12.50;9.97;;;4.60;99.90;;;;;;5018476;28;20183;-67
2021/11/11 07:49:17;;;;;;;17.30;11.33;;;4.70;99.90;;;;;;5018024;28;20617;-69
2021/11/11 07:51:43;;;;;;;11.97;9.73;;;4.90;99.90;;;;;;5014471;28;20180;-67
2021/11/11 07:54:09;;;;;;;14.77;9.10;;;5.40;99.90;;;;;;5013216;28;20176;-68
2021/11/11 07:56:35;;;;;;;18.63;10.73;;;5.50;99.90;;;;;;5020792;28;20580;-66
2021/11/11 07:59:04;;;;;;;15.37;10.03;;;5.60;99.90;;;;;;5021200;28;20440;-68
2021/11/11 08:01:30;;;;;;;11.90;7.83;;;5.60;99.90;;;;;;5014308;28;20411;-67
2021/11/11 08:03:55;;;;;;;16.00;9.30;;;5.80;99.90;;;;;;5014101;28;20458;-69
2021/11/11 08:06:21;;;;;;;12.10;8.07;;;6.40;99.90;;;;;;5014174;28;20636;-69
2021/11/11 08:08:46;;;;;;;17.57;8.70;;;6.60;99.90;;;;;;5012898;28;20196;-69
2021/11/11 08:11:12;;;;;;;14.70;8.30;;;6.60;99.90;;;;;;5014134;28;20171;-69
2021/11/11 08:13:38;;;;;;;14.53;9.17;;;6.70;99.90;;;;;;5013992;28;20172;-67
2021/11/11 08:16:04;;;;;;;11.27;8.33;;;6.60;99.90;;;;;;5017837;28;20168;-68
2021/11/11 08:18:29;;;;;;;11.37;7.87;;;6.00;99.90;;;;;;5013734;28;20514;-68
2021/11/11 08:20:55;;;;;;;15.60;6.57;;;5.60;99.90;;;;;;5013845;28;20411;-68
2021/11/11 08:23:21;;;;;;;12.83;6.90;;;5.60;99.90;;;;;;5013428;28;20537;-71
2021/11/11 08:25:48;;;;;;;11.97;7.23;;;6.00;99.90;;;;;;5013424;28;20678;-68
2021/11/11 08:28:18;;;;;;;10.73;7.67;;;6.20;99.90;;;;;;5014078;28;20487;-69
2021/11/11 08:30:46;;;;;;;9.30;6.97;;;6.60;99.90;;;;;;5013731;28;20402;-69
2021/11/11 08:33:11;;;;;;;12.00;6.70;;;6.90;99.90;;;;;;5012500;28;20447;-68
2021/11/11 08:35:37;;;;;;;10.23;6.80;;;6.50;99.90;;;;;;5013748;28;20445;-68
2021/11/11 08:38:04;;;;;;;7.77;5.73;;;6.40;99.90;;;;;;5013524;28;20174;-69
2021/11/11 08:40:29;;;;;;;8.83;6.40;;;6.60;99.90;;;;;;5013365;28;20507;-69
2021/11/11 08:43:00;;;;;;;10.13;6.73;;;7.20;99.90;;;;;;5020315;28;20967;-72
2021/11/11 08:45:28;;;;;;;9.63;5.47;;;7.80;99.90;;;;;;5014090;28;20177;-70
2021/11/11 08:47:55;;;;;;;9.63;5.97;;;7.80;99.90;;;;;;5012943;28;20828;-68
2021/11/11 08:50:21;;;;;;;13.03;7.57;;;8.20;99.90;;;;;;5030170;28;20438;-69
2021/11/11 08:52:53;;;;;;;10.07;6.87;;;8.90;99.90;;;;;;5033123;28;20417;-68
2021/11/11 08:55:22;;;;;;;10.03;6.80;;;8.70;99.90;;;;;;5033019;28;20406;-68
2021/11/11 08:57:48;;;;;;;11.23;8.20;;;8.30;99.90;;;;;;5032821;28;20624;-69
2021/11/11 09:00:23;;;;;;;10.93;7.33;;;8.10;99.90;;;;;;5032839;28;20968;-68
2021/11/11 09:02:51;;;;;;;8.77;7.50;;;7.30;99.90;;;;;;5039475;28;20181;-67
2021/11/11 09:05:18;;;;;;;9.73;6.27;;;7.10;99.90;;;;;;5038101;28;20482;-68
2021/11/11 09:07:44;;;;;;;10.83;7.43;;;7.00;99.90;;;;;;5038072;28;20434;-67
2021/11/11 09:10:13;;;;;;;10.47;6.20;;;6.90;99.90;;;;;;5035365;28;21018;-69
2021/11/11 09:12:39;;;;;;;8.60;6.43;;;7.10;99.90;;;;;;5034671;28;20414;-69
2021/11/11 09:15:08;;;;;;;10.43;8.73;;;7.10;99.90;;;;;;5034729;28;20398;-68
2021/11/11 09:17:35;;;;;;;12.93;7.53;;;7.60;99.90;;;;;;5034900;28;20188;-72
2021/11/11 09:20:01;;;;;;;10.00;6.63;;;7.20;99.90;;;;;;5033509;28;20481;-69
2021/11/11 09:22:27;;;;;;;10.00;7.47;;;7.30;99.90;;;;;;5035303;28;20756;-69
2021/11/11 09:24:56;;;;;;;10.83;6.23;;;7.30;99.90;;;;;;5035630;28;20454;-68
2021/11/11 09:27:24;;;;;;;10.33;7.27;;;7.50;99.90;;;;;;5034184;28;20411;-68
2021/11/11 09:29:54;;;;;;;11.27;8.20;;;7.50;99.90;;;;;;5035419;28;20453;-69
2021/11/11 09:32:19;;;;;;;11.87;8.90;;;7.70;99.90;;;;;;5034670;28;20430;-69
2021/11/11 09:34:45;;;;;;;14.77;9.50;;;7.60;99.90;;;;;;5034807;28;21024;-68
2021/11/11 09:37:10;;;;;;;13.70;8.00;;;7.60;99.90;;;;;;5034546;28;20186;-68
2021/11/11 09:39:36;;;;;;;11.00;6.33;;;7.50;99.90;;;;;;5034490;28;20192;-69
2021/11/11 09:42:02;;;;;;;12.33;6.60;;;7.00;99.90;;;;;;5034835;28;20314;-70
2021/11/11 09:44:28;;;;;;;11.27;8.20;;;7.00;99.90;;;;;;5034449;28;20455;-69
2021/11/11 09:46:55;;;;;;;6.43;5.30;;;7.10;99.90;;;;;;5034947;28;20430;-71
2021/11/11 09:49:21;;;;;;;9.27;5.73;;;7.20;99.90;;;;;;5030481;28;20419;-71
2021/11/11 09:51:49;;;;;;;7.87;4.83;;;7.40;99.90;;;;;;5034555;28;20745;-69
2021/11/11 09:59:29;;;;;;;9.23;5.63;;;7.40;99.90;;;;;;5033799;28;20459;-73
2021/11/11 10:01:57;;;;;;;8.53;6.10;;;7.40;99.90;;;;;;5034202;28;20399;-70
2021/11/11 10:04:23;;;;;;;8.87;4.93;;;7.40;99.90;;;;;;5034283;28;20504;-70
2021/11/11 10:06:49;;;;;;;9.67;5.30;;;7.20;99.90;;;;;;5033623;28;20402;-69
2021/11/11 10:09:20;;;;;;;7.57;5.63;;;7.30;99.90;;;;;;5012324;28;20981;-70
2021/11/11 10:11:52;;;;;;;8.17;5.20;;;7.40;99.90;;;;;;5012333;28;20642;-69
2021/11/11 10:14:28;;;;;;;10.17;4.80;;;7.40;99.90;;;;;;5012056;28;20786;-69
2021/11/11 10:16:53;;;;;;;10.63;5.87;;;7.40;99.90;;;;;;5011842;28;20407;-69
2021/11/11 10:19:19;;;;;;;12.47;6.40;;;7.40;99.90;;;;;;5012049;28;20440;-69
2021/11/11 10:24:42;;;;;;;10.63;4.67;;;7.20;99.90;;;;;;5012079;28;20200;-68
2021/11/11 10:30:05;;;;;;;9.70;4.60;;;7.20;99.90;;;;;;5011621;28;20435;-69
2021/11/11 10:32:40;;;;;;;7.53;3.83;;;7.60;99.90;;;;;;5011804;28;20772;-69
2021/11/11 10:35:08;;;;;;;8.10;4.37;;;7.60;99.90;;;;;;5011650;28;20814;-68
2021/11/11 10:37:37;;;;;;;7.80;4.37;;;7.60;99.90;;;;;;5011879;28;20392;-68
2021/11/11 10:40:31;;;;;;;9.87;4.80;;;7.70;99.90;;;;;;5011946;28;20416;-70
2021/11/11 10:42:57;;;;;;;10.43;4.80;;;7.70;99.90;;;;;;5011945;28;20452;-69
2021/11/11 10:45:30;;;;;;;12.03;4.73;;;7.80;99.90;;;;;;5027082;28;20922;-68
2021/11/11 10:48:01;;;;;;;10.03;6.93;;;7.80;99.90;;;;;;5031232;28;20417;-69
2021/11/11 10:50:38;;;;;;;13.40;5.60;;;7.90;99.90;;;;;;5031048;28;20435;-68
2021/11/11 10:53:06;;;;;;;7.23;4.67;;;8.10;99.90;;;;;;5031361;28;20410;-69
2021/11/11 10:55:37;;;;;;;8.83;4.83;;;8.40;99.90;;;;;;5031331;28;20482;-69
2021/11/11 10:58:12;;;;;;;8.53;5.90;;;8.40;99.90;;;;;;5030181;28;20437;-68
2021/11/11 11:00:56;;;;;;;8.07;5.20;;;8.50;99.90;;;;;;5031734;28;20406;-68
2021/11/11 11:03:39;;;;;;;9.57;6.10;;;8.70;99.90;;;;;;5031311;28;20822;-68
2021/11/11 11:06:23;;;;;;;16.17;6.87;;;8.70;99.90;;;;;;5031362;28;20406;-67
2021/11/11 11:08:56;;;;;;;11.03;6.67;;;8.70;99.90;;;;;;5031249;28;20446;-67
2021/11/11 11:11:38;;;;;;;11.30;6.73;;;8.90;99.90;;;;;;5031163;28;20409;-69
2021/11/11 11:14:22;;;;;;;9.30;5.13;;;9.30;99.90;;;;;;5034966;28;20944;-69
2021/11/11 11:16:48;;;;;;;10.13;6.57;;;9.30;99.90;;;;;;5034909;28;20459;-69
2021/11/11 11:19:18;;;;;;;11.53;5.90;;;9.30;99.90;;;;;;5034917;28;20861;-70
2021/11/11 11:21:50;;;;;;;8.83;5.40;;;9.40;99.90;;;;;;5034638;28;20176;-70
2021/11/11 11:24:24;;;;;;;12.93;5.43;;;9.50;99.90;;;;;;5033373;28;21113;-70
2021/11/11 11:26:52;;;;;;;15.57;7.20;;;9.50;99.90;;;;;;5034550;28;20414;-67
2021/11/11 11:29:25;;;;;;;9.53;6.63;;;9.50;99.90;;;;;;5034745;28;20441;-68
2021/11/11 11:32:05;;;;;;;10.73;5.83;;;9.20;99.90;;;;;;5034610;28;20403;-69
2021/11/11 11:34:48;;;;;;;10.67;5.63;;;9.40;99.90;;;;;;5034494;28;20776;-69
2021/11/11 11:37:16;;;;;;;8.10;5.93;;;9.20;99.90;;;;;;5034747;28;20761;-68
2021/11/11 11:39:49;;;;;;;5.77;4.77;;;9.30;99.90;;;;;;5034410;28;20487;-71
2021/11/11 11:42:30;;;;;;;7.23;5.40;;;9.70;99.90;;;;;;5034509;28;20405;-69
2021/11/11 11:45:03;;;;;;;8.93;6.50;;;9.60;99.90;;;;;;5034117;28;20975;-67
2021/11/11 11:47:37;;;;;;;9.87;6.53;;;9.70;99.90;;;;;;5023212;28;20818;-69
2021/11/11 11:50:18;;;;;;;11.77;6.73;;;9.60;99.90;;;;;;5026870;28;20430;-68
2021/11/11 11:52:49;;;;;;;9.10;5.90;;;9.30;99.90;;;;;;5034230;28;20398;-67
2021/11/11 11:58:10;;;;;;;10.53;5.60;;;9.10;99.90;;;;;;5034521;28;20377;-68
2021/11/11 12:03:34;;;;;;;11.77;5.80;;;9.60;99.90;;;;;;5014332;28;20458;-69
2021/11/11 12:28:35;;;;;;;9.67;6.17;;;9.80;99.90;;;;;;5057249;28;20479;-68
2021/11/11 12:40:03;;;;;;;7.97;5.40;;;9.60;99.90;;;;;;5017381;28;20453;-68
2021/11/11 12:42:53;;;;;;;7.53;5.07;;;10.00;99.90;;;;;;5017471;28;20449;-68
2021/11/11 12:45:24;;;;;;;9.27;5.77;;;9.80;99.90;;;;;;5031264;28;20422;-68
2021/11/11 12:48:09;;;;;;;11.47;6.27;;;9.60;99.90;;;;;;5036594;28;20406;-69
2021/11/11 12:50:50;;;;;;;7.80;5.60;;;9.60;99.90;;;;;;5036273;28;20429;-68
2021/11/11 12:53:19;;;;;;;8.30;6.80;;;9.90;99.90;;;;;;5016308;28;20458;-68
2021/11/11 12:55:59;;;;;;;9.30;6.43;;;9.90;99.90;;;;;;5016127;28;20470;-68
2021/11/11 12:58:38;;;;;;;12.40;5.90;;;9.50;99.90;;;;;;5016918;28;20407;-68
2021/11/11 13:01:30;;;;;;;9.80;6.10;;;9.40;99.90;;;;;;5014796;28;20411;-67
2021/11/11 13:03:58;;;;;;;10.30;6.10;;;9.40;99.90;;;;;;5031505;28;20864;-68
2021/11/11 13:06:36;;;;;;;11.07;6.70;;;9.70;99.90;;;;;;5037095;28;20408;-68
2021/11/11 13:09:25;;;;;;;10.90;6.30;;;9.40;99.90;;;;;;5035603;28;20432;-69
2021/11/11 13:11:57;;;;;;;8.40;5.40;;;9.60;99.90;;;;;;5035335;28;21167;-68
2021/11/11 13:14:30;;;;;;;8.10;5.97;;;9.30;99.90;;;;;;5034960;28;20465;-69
2021/11/11 13:16:58;;;;;;;11.37;5.60;;;9.00;99.90;;;;;;5035255;28;20416;-69
2021/11/11 13:19:33;;;;;;;10.10;5.63;;;9.20;99.90;;;;;;5033856;28;20422;-69
2021/11/11 13:22:22;;;;;;;9.73;6.63;;;9.10;99.90;;;;;;5032465;28;20498;-68
2021/11/11 13:43:48;;;;;;;12.43;7.07;;;9.00;99.90;;;;;;5032380;28;20914;-68
2021/11/11 13:59:32;;;;;;;13.13;7.30;;;9.50;99.90;;;;;;5032167;28;20775;-70
2021/11/11 15:04:15;;;;;;;7.00;4.97;;;9.60;99.90;;;;;;5051381;28;20450;-68
2021/11/11 15:20:00;;;;;;;7.97;4.47;;;9.40;99.90;;;;;;5033922;28;20595;-68
2021/11/11 15:57:05;;;;;;;8.13;5.87;;;9.00;99.90;;;;;;5033367;28;20393;-69
2021/11/11 16:01:47;;;;;;;8.50;4.93;;;9.10;99.90;;;;;;5034123;28;20758;-69
2021/11/11 16:23:45;;;;;;;4.10;3.20;;;9.00;99.90;;;;;;5013494;28;20993;-68
2021/11/11 16:26:13;;;;;;;6.47;3.80;;;9.00;99.90;;;;;;5013624;28;20412;-68
2021/11/11 16:28:39;;;;;;;7.93;4.60;;;8.90;99.90;;;;;;5013902;28;20434;-67
2021/11/11 16:31:06;;;;;;;6.67;3.97;;;8.90;99.90;;;;;;5013702;28;20407;-68
2021/11/11 16:33:32;;;;;;;6.63;4.70;;;9.00;99.90;;;;;;5013605;28;20405;-68
2021/11/11 16:36:00;;;;;;;10.00;4.30;;;8.90;99.90;;;;;;5022898;28;20438;-68
2021/11/11 16:38:26;;;;;;;7.13;4.87;;;8.90;99.90;;;;;;5033062;28;20177;-67
2021/11/11 16:40:52;;;;;;;5.17;3.93;;;8.80;99.90;;;;;;5033199;28;20433;-68
2021/11/11 16:43:17;;;;;;;6.63;4.10;;;8.90;99.90;;;;;;5032888;28;20222;-69